Time;durP1;ratioP1;P1;durP2;ratioP2;P2;SDS_P1;SDS_P2;PMS_P1;PMS_P2;Temp;Humidity;BMP_temperature;BMP_pressure;BME280_temperature;BME280_humidity;BME280_pressure;Samples;Min_cycle;Max_cycle;Signal;HPM_P1;HPM_P2
2022/05/05 00:01:22;;;;;;;7.05;4.10;;;;;;;14.75;77.27;100719.56;5093625;28;20111;-85
2022/05/05 00:03:48;;;;;;;11.00;4.28;;;;;;;14.74;77.59;100721.38;5092716;28;20040;-86
2022/05/05 00:06:13;;;;;;;8.57;4.43;;;;;;;14.58;79.05;100716.22;5108104;28;20060;-87
2022/05/05 00:08:39;;;;;;;5.55;4.18;;;;;;;14.48;79.68;100724.47;5094845;28;20024;-90
2022/05/05 00:16:32;;;;;;;7.35;4.53;;;;;;;14.53;79.19;100723.94;5094057;28;20040;-87
2022/05/05 00:18:58;;;;;;;5.68;4.30;;;;;;;14.68;78.59;100721.28;5074633;28;20486;-85
2022/05/05 00:21:23;;;;;;;6.85;4.20;;;;;;;14.54;79.12;100722.09;5093173;28;20085;-87
2022/05/05 00:23:48;;;;;;;6.30;4.40;;;;;;;14.51;78.98;100723.31;5093092;28;20032;-87
2022/05/05 00:26:14;;;;;;;9.88;4.93;;;;;;;14.13;82.38;100729.63;5092018;28;20498;-86
2022/05/05 00:28:39;;;;;;;10.30;4.47;;;;;;;13.80;83.38;100729.88;5092827;28;20071;-87
2022/05/05 00:31:05;;;;;;;5.97;4.68;;;;;;;13.42;86.00;100736.16;5074764;28;20096;-87
2022/05/05 00:33:31;;;;;;;6.57;4.43;;;;;;;13.65;83.98;100714.88;5091458;28;20508;-85
2022/05/05 00:35:56;;;;;;;7.25;4.20;;;;;;;13.64;84.40;100713.19;5084326;28;20043;-87
2022/05/05 00:38:22;;;;;;;10.27;5.03;;;;;;;13.56;83.99;100722.06;5070782;28;20421;-87
2022/05/05 00:40:47;;;;;;;5.25;4.18;;;;;;;13.39;85.76;100720.50;5076004;28;20067;-88
2022/05/05 00:43:13;;;;;;;6.15;4.47;;;;;;;13.37;85.87;100711.88;5076836;28;20479;-87
2022/05/05 00:45:39;;;;;;;6.38;4.45;;;;;;;13.31;86.82;100712.56;5058154;28;20055;-87
2022/05/05 00:48:09;;;;;;;8.32;4.40;;;;;;;13.45;86.49;100709.16;5076170;28;20043;-86
2022/05/05 00:50:36;;;;;;;9.38;4.40;;;;;;;13.42;86.97;100707.66;5058614;28;20044;-86
2022/05/05 00:53:03;;;;;;;11.20;4.80;;;;;;;13.41;87.07;100705.19;5076354;28;20055;-84
2022/05/05 00:55:32;;;;;;;7.18;4.38;;;;;;;13.45;87.59;100709.16;5076263;28;20029;-85
2022/05/05 00:58:02;;;;;;;8.18;4.85;;;;;;;13.23;88.06;100708.13;5076136;28;20054;-85
2022/05/05 01:00:29;;;;;;;9.18;4.65;;;;;;;13.24;88.94;100703.63;5076296;28;20028;-87
2022/05/05 01:02:54;;;;;;;9.13;4.18;;;;;;;13.50;87.95;100706.78;5076300;28;20086;-86
2022/05/05 01:05:20;;;;;;;7.00;4.47;;;;;;;13.50;87.09;100696.13;5075795;28;20036;-85
2022/05/05 01:07:47;;;;;;;7.47;4.97;;;;;;;13.37;87.96;100706.53;5075680;28;20487;-84
2022/05/05 01:10:13;;;;;;;13.93;5.03;;;;;;;13.29;89.06;100703.94;5075953;28;20441;-86
2022/05/05 01:12:38;;;;;;;10.10;5.20;;;;;;;13.21;89.88;100706.63;5075623;28;20029;-84
2022/05/05 01:15:05;;;;;;;6.03;4.63;;;;;;;13.25;89.85;100702.63;5075624;28;20509;-85
2022/05/05 01:17:30;;;;;;;7.82;4.65;;;;;;;13.53;87.99;100698.44;5075637;28;20386;-85
2022/05/05 01:20:16;;;;;;;10.07;4.55;;;;;;;13.64;86.78;100697.22;5083063;28;20036;-89
2022/05/05 01:22:42;;;;;;;10.68;4.72;;;;;;;13.59;87.33;100692.41;5001639;28;20034;-87
2022/05/05 01:28:11;;;;;;;8.43;4.70;;;;;;;13.62;87.56;100692.06;5015849;28;20408;-86
2022/05/05 01:30:38;;;;;;;8.02;4.63;;;;;;;13.40;87.82;100695.53;5004009;28;20749;-89
2022/05/05 01:33:13;;;;;;;7.28;4.60;;;;;;;13.36;88.18;100696.88;4999018;28;20042;-86
2022/05/05 01:35:40;;;;;;;7.95;4.88;;;;;;;13.32;88.99;100687.63;5001119;28;20492;-85
2022/05/05 01:38:10;;;;;;;8.05;5.30;;;;;;;13.10;90.72;100697.22;5007514;28;20492;-89
2022/05/05 01:40:36;;;;;;;6.60;5.15;;;;;;;13.37;89.78;100686.06;5013448;28;20542;-84
2022/05/05 01:43:03;;;;;;;5.50;4.57;;;;;;;13.58;88.46;100688.09;5013191;28;20025;-83
2022/05/05 01:45:30;;;;;;;7.22;5.18;;;;;;;13.54;87.25;100692.13;4996994;28;20507;-84
2022/05/05 01:47:56;;;;;;;8.63;5.35;;;;;;;13.32;88.92;100692.94;5013497;28;20038;-84
2022/05/05 01:50:22;;;;;;;9.52;4.90;;;;;;;13.37;88.51;100690.56;5020733;28;20113;-87
2022/05/05 01:52:48;;;;;;;11.18;4.95;;;;;;;13.23;90.25;100699.28;5013478;28;20083;-84
2022/05/05 01:55:14;;;;;;;7.25;4.82;;;;;;;13.19;90.59;100698.00;5013060;28;20042;-86
2022/05/05 01:57:39;;;;;;;7.10;4.93;;;;;;;13.01;91.38;100700.06;5012810;28;20034;-87
2022/05/05 02:00:06;;;;;;;10.70;6.03;;;;;;;12.88;91.84;100696.13;5041776;28;20452;-87
2022/05/05 02:02:44;;;;;;;7.07;4.65;;;;;;;12.98;91.18;100700.41;5074820;28;20082;-84
2022/05/05 02:05:11;;;;;;;12.60;5.47;;;;;;;13.14;90.67;100690.53;5076016;28;20517;-86
2022/05/05 02:07:37;;;;;;;10.45;5.20;;;;;;;12.88;91.81;100696.13;5074671;28;20036;-88
2022/05/05 02:10:05;;;;;;;8.48;5.07;;;;;;;12.84;91.38;100689.47;5075202;28;20021;-87
2022/05/05 02:12:38;;;;;;;13.05;5.22;;;;;;;13.00;91.57;100687.75;5075334;28;20051;-85
2022/05/05 02:15:08;;;;;;;8.60;4.80;;;;;;;12.97;91.15;100691.59;5074830;28;20071;-88
2022/05/05 02:17:38;;;;;;;8.27;4.20;;;;;;;13.03;90.46;100687.38;5074838;28;20054;-87
2022/05/05 02:20:05;;;;;;;9.82;5.22;;;;;;;12.87;90.73;100691.78;5074995;28;20037;-87
2022/05/05 02:22:31;;;;;;;10.30;5.00;;;;;;;12.89;91.78;100688.97;5075135;28;20036;-85
2022/05/05 02:24:57;;;;;;;7.72;5.32;;;;;;;13.02;90.14;100683.09;5074756;28;20045;-85
2022/05/05 02:27:23;;;;;;;8.60;5.43;;;;;;;12.83;91.19;100695.78;5074674;28;20497;-85
2022/05/05 02:29:50;;;;;;;6.93;5.07;;;;;;;12.72;92.49;100690.88;5056677;28;20063;-86
2022/05/05 02:32:16;;;;;;;7.68;5.03;;;;;;;12.95;91.24;100696.25;5056816;28;20506;-88
2022/05/05 02:34:42;;;;;;;7.65;4.85;;;;;;;12.81;92.13;100700.47;5074772;28;20108;-87
2022/05/05 02:39:52;;;;;;;11.23;4.90;;;;;;;12.75;91.60;100700.31;5084070;28;20056;-83
2022/05/05 02:42:18;;;;;;;9.05;5.03;;;;;;;12.93;90.71;100699.09;5088955;28;20037;-84
2022/05/05 02:44:44;;;;;;;10.25;5.28;;;;;;;13.06;89.81;100692.41;5076542;28;20435;-83
2022/05/05 02:50:57;;;;;;;9.88;5.00;;;;;;;12.74;91.16;100699.50;5091485;28;20067;-85
2022/05/05 02:56:06;;;;;;;8.48;4.82;;;;;;;12.84;91.49;100701.94;5081072;28;20552;-86
2022/05/05 02:58:32;;;;;;;9.20;4.90;;;;;;;13.02;89.93;100699.06;5075566;28;20131;-85
2022/05/05 03:00:58;;;;;;;8.23;5.25;;;;;;;12.88;90.88;100704.09;5075436;28;20028;-87
2022/05/05 03:03:23;;;;;;;10.00;4.80;;;;;;;12.63;92.27;100718.47;5074476;28;20076;-87
2022/05/05 03:05:49;;;;;;;8.98;5.18;;;;;;;12.85;91.77;100712.44;5074143;28;20036;-83
2022/05/05 03:08:14;;;;;;;9.68;5.15;;;;;;;12.64;92.17;100706.84;5073706;28;20047;-84
2022/05/05 03:10:40;;;;;;;6.80;4.70;;;;;;;12.56;92.66;100711.38;5073467;28;20499;-84
2022/05/05 03:13:05;;;;;;;8.13;4.82;;;;;;;12.89;90.80;100708.41;5073322;28;20445;-87
2022/05/05 03:15:31;;;;;;;5.60;4.65;;;;;;;12.66;90.71;100707.50;5073468;28;20029;-82
2022/05/05 03:17:57;;;;;;;6.85;5.10;;;;;;;12.56;91.95;100706.84;5074919;28;20403;-85
2022/05/05 03:20:23;;;;;;;8.30;4.57;;;;;;;12.53;91.83;100709.03;5074694;28;20116;-84
2022/05/05 03:22:49;;;;;;;9.63;5.28;;;;;;;12.51;91.74;100706.53;5073530;28;20204;-84
2022/05/05 03:25:14;;;;;;;6.30;4.82;;;;;;;12.68;90.48;100708.16;5073608;28;20040;-86
2022/05/05 03:27:40;;;;;;;5.70;4.40;;;;;;;12.72;89.94;100709.50;5073473;28;20068;-83
2022/05/05 03:30:06;;;;;;;12.18;5.47;;;;;;;12.88;88.57;100709.44;5073063;28;20364;-83
2022/05/05 03:32:32;;;;;;;11.57;4.95;;;;;;;12.89;88.69;100723.56;5072971;28;20086;-84
2022/05/05 03:35:04;;;;;;;13.70;5.32;;;;;;;12.94;88.68;100711.38;5073109;28;20403;-85
2022/05/05 03:37:30;;;;;;;7.85;4.82;;;;;;;13.03;87.97;100719.31;5073166;28;20072;-84
2022/05/05 03:39:56;;;;;;;7.53;4.70;;;;;;;13.08;87.82;100727.63;5074670;28;20105;-84
2022/05/05 03:42:22;;;;;;;7.57;5.28;;;;;;;13.06;87.56;100722.47;5073036;28;20028;-83
2022/05/05 03:44:47;;;;;;;10.85;4.97;;;;;;;12.84;89.53;100721.41;5073341;28;20074;-85
2022/05/05 03:47:13;;;;;;;10.55;5.30;;;;;;;12.74;90.20;100715.44;5079727;28;20040;-85
2022/05/05 03:49:38;;;;;;;7.57;4.70;;;;;;;12.89;89.74;100719.03;5073323;28;20029;-83
2022/05/05 03:52:05;;;;;;;6.25;4.68;;;;;;;12.66;90.83;100715.47;5057812;28;20120;-84
2022/05/05 03:54:30;;;;;;;6.57;4.68;;;;;;;12.75;91.06;100714.47;5074401;28;20177;-85
2022/05/05 03:56:56;;;;;;;11.57;4.80;;;;;;;12.62;91.35;100719.50;5072780;28;20485;-82
2022/05/05 03:59:22;;;;;;;7.63;4.53;;;;;;;12.51;91.83;100709.19;5072711;28;20033;-82
2022/05/05 04:01:49;;;;;;;7.43;4.93;;;;;;;12.34;92.30;100702.25;5072976;28;20036;-82
2022/05/05 04:04:15;;;;;;;7.25;4.85;;;;;;;12.32;92.59;100704.25;5072803;28;20123;-83
2022/05/05 04:06:41;;;;;;;9.07;4.72;;;;;;;12.41;91.80;100693.44;5072982;28;20128;-84
2022/05/05 04:09:07;;;;;;;14.68;4.97;;;;;;;12.45;90.82;100693.94;5074548;28;20515;-80
2022/05/05 04:11:33;;;;;;;9.40;5.18;;;;;;;12.26;92.00;100695.13;5075516;28;20158;-84
2022/05/05 04:13:58;;;;;;;7.13;5.07;;;;;;;12.13;93.01;100696.66;5074468;28;20028;-82
2022/05/05 04:16:24;;;;;;;12.10;4.95;;;;;;;11.95;94.75;100694.16;5076680;28;20035;-84
2022/05/05 04:18:49;;;;;;;13.90;6.03;;;;;;;11.96;96.54;100698.50;5076510;28;20402;-84
2022/05/05 04:21:15;;;;;;;13.85;5.47;;;;;;;11.74;97.31;100699.97;5076695;28;20080;-83
2022/05/05 04:23:41;;;;;;;11.05;5.85;;;;;;;11.63;99.39;100687.00;5077041;28;20491;-84
2022/05/05 04:26:08;;;;;;;9.18;5.93;;;;;;;11.59;100.00;100690.97;5077232;28;20119;-85
2022/05/05 04:28:34;;;;;;;8.52;5.82;;;;;;;11.56;100.00;100691.31;5080073;28;20036;-85
2022/05/05 04:30:59;;;;;;;15.05;6.07;;;;;;;11.54;100.00;100697.75;5078783;28;20039;-83
2022/05/05 04:33:25;;;;;;;10.32;6.22;;;;;;;11.43;100.00;100690.13;5082085;28;20063;-89
2022/05/05 04:35:51;;;;;;;9.27;6.10;;;;;;;11.48;100.00;100687.78;5082232;28;20047;-88
2022/05/05 04:38:16;;;;;;;7.25;5.80;;;;;;;11.45;100.00;100694.28;5080363;28;20044;-87
2022/05/05 04:40:42;;;;;;;22.50;7.03;;;;;;;11.41;100.00;100687.63;5077411;28;20068;-91
2022/05/05 04:43:07;;;;;;;9.02;6.22;;;;;;;11.45;100.00;100699.56;5079858;28;20037;-83
2022/05/05 04:45:33;;;;;;;8.02;5.63;;;;;;;11.41;100.00;100703.53;5078397;28;20048;-86
2022/05/05 04:47:59;;;;;;;11.90;6.10;;;;;;;11.50;100.00;100713.16;5062228;28;20039;-86
2022/05/05 04:50:25;;;;;;;11.93;6.38;;;;;;;11.62;100.00;100717.19;5068680;28;20123;-88
2022/05/05 04:52:52;;;;;;;11.35;6.35;;;;;;;11.91;98.90;100722.88;5060293;28;20040;-86
2022/05/05 04:55:18;;;;;;;17.33;5.93;;;;;;;11.91;99.02;100716.75;5078070;28;20555;-89
2022/05/05 04:57:44;;;;;;;14.90;6.65;;;;;;;12.20;97.77;100724.19;5077978;28;20036;-86
2022/05/05 05:00:10;;;;;;;9.88;5.95;;;;;;;12.30;96.91;100727.50;5075322;28;20364;-87
2022/05/05 05:02:38;;;;;;;14.63;6.63;;;;;;;12.29;97.71;100728.53;5079570;28;20047;-84
2022/05/05 05:05:04;;;;;;;19.20;6.75;;;;;;;12.42;95.88;100726.19;5105484;28;20056;-87
2022/05/05 05:07:30;;;;;;;14.85;5.93;;;;;;;12.49;96.00;100737.78;5096378;28;20040;-85
2022/05/05 05:09:55;;;;;;;14.15;6.22;;;;;;;12.65;94.61;100737.75;5097996;28;20410;-87
2022/05/05 05:12:21;;;;;;;12.77;6.25;;;;;;;12.81;94.10;100744.84;5098629;28;20032;-86
2022/05/05 05:14:47;;;;;;;10.90;5.90;;;;;;;13.01;92.68;100748.78;5097142;28;20043;-85
2022/05/05 05:17:13;;;;;;;11.23;5.70;;;;;;;13.36;90.87;100748.31;5080088;28;20112;-87
2022/05/05 05:19:39;;;;;;;18.45;5.95;;;;;;;13.55;89.96;100752.38;5093639;28;20111;-88
2022/05/05 05:22:05;;;;;;;15.07;6.05;;;;;;;13.61;89.55;100741.00;5086069;28;20097;-87
2022/05/05 05:24:32;;;;;;;9.05;5.82;;;;;;;13.79;88.48;100736.22;5085916;28;20028;-86
2022/05/05 05:26:57;;;;;;;10.38;5.35;;;;;;;13.72;89.47;100735.25;5066856;28;20056;-84
2022/05/05 05:29:26;;;;;;;11.85;5.88;;;;;;;13.72;88.88;100732.59;5099660;28;20038;-85
2022/05/05 05:31:52;;;;;;;12.07;5.93;;;;;;;13.57;90.55;100754.84;5112778;28;20053;-82
2022/05/05 05:34:18;;;;;;;20.25;6.55;;;;;;;13.58;91.19;100760.00;5099863;28;20474;-87
2022/05/05 05:36:43;;;;;;;14.10;6.88;;;;;;;13.58;91.48;100778.66;5101532;28;20031;-87
2022/05/05 05:39:09;;;;;;;12.52;6.45;;;;;;;13.49;93.19;100781.53;5098156;28;20505;-86
2022/05/05 05:41:34;;;;;;;9.25;5.68;;;;;;;13.29;94.06;100789.13;5079758;28;20471;-86
2022/05/05 05:44:01;;;;;;;11.05;6.40;;;;;;;13.20;94.96;100779.50;5096652;28;20039;-85
2022/05/05 05:46:26;;;;;;;14.50;6.43;;;;;;;13.24;95.44;100786.13;5078359;28;20020;-84
2022/05/05 05:48:52;;;;;;;10.82;5.68;;;;;;;13.46;93.79;100780.88;5096004;28;20031;-86
2022/05/05 05:51:18;;;;;;;13.45;6.55;;;;;;;13.49;93.71;100786.88;5076748;28;20417;-87
2022/05/05 05:53:43;;;;;;;10.68;6.32;;;;;;;13.44;93.94;100784.72;5095594;28;20043;-84
2022/05/05 05:56:09;;;;;;;18.27;6.18;;;;;;;13.64;92.87;100793.94;5095911;28;20486;-86
2022/05/05 05:58:38;;;;;;;14.32;6.28;;;;;;;13.70;92.31;100787.06;5095229;28;20039;-83
2022/05/05 06:01:06;;;;;;;17.10;6.95;;;;;;;13.63;93.04;100786.94;5095365;28;20040;-84
2022/05/05 06:06:15;;;;;;;12.45;6.45;;;;;;;13.87;91.43;100772.63;5095598;28;20040;-89
2022/05/05 06:08:41;;;;;;;15.13;6.78;;;;;;;13.94;90.98;100761.09;5095692;28;20538;-84
2022/05/05 06:11:06;;;;;;;16.15;6.80;;;;;;;14.00;91.26;100767.53;5077006;28;20460;-83
2022/05/05 06:13:32;;;;;;;14.18;6.70;;;;;;;13.99;91.10;100766.72;5095149;28;20105;-81
2022/05/05 06:15:57;;;;;;;16.02;6.40;;;;;;;13.99;90.93;100761.38;5094955;28;20028;-86
2022/05/05 06:18:23;;;;;;;11.65;6.15;;;;;;;14.12;90.09;100766.09;5095153;28;20386;-83
2022/05/05 06:20:48;;;;;;;10.98;6.50;;;;;;;14.11;90.06;100763.63;5094969;28;20036;-83
2022/05/05 06:23:14;;;;;;;13.18;6.50;;;;;;;14.20;89.93;100762.56;5095188;28;20458;-84
2022/05/05 06:25:41;;;;;;;11.07;6.57;;;;;;;14.26;88.71;100762.66;5096068;28;20093;-85
2022/05/05 06:28:06;;;;;;;18.02;6.72;;;;;;;14.35;87.44;100766.94;5095651;28;20055;-84
2022/05/05 06:30:32;;;;;;;14.48;6.38;;;;;;;14.49;85.81;100774.16;5095882;28;20070;-87
2022/05/05 06:32:57;;;;;;;12.88;6.40;;;;;;;14.55;85.82;100777.13;5077081;28;20047;-84
2022/05/05 06:35:24;;;;;;;14.60;6.95;;;;;;;14.60;84.67;100786.22;5077243;28;20050;-84
2022/05/05 06:37:50;;;;;;;16.40;7.38;;;;;;;14.56;84.95;100786.75;5075867;28;20402;-82
2022/05/05 06:40:16;;;;;;;10.77;6.30;;;;;;;14.77;82.74;100793.06;5094937;28;20042;-85
2022/05/05 06:42:42;;;;;;;11.57;6.38;;;;;;;14.82;84.45;100795.16;5095238;28;20024;-85
2022/05/05 06:45:08;;;;;;;14.32;6.53;;;;;;;14.72;85.25;100792.75;5095145;28;20065;-86
2022/05/05 06:47:33;;;;;;;11.85;6.40;;;;;;;14.77;84.85;100787.72;5060898;28;20390;-85
2022/05/05 06:49:59;;;;;;;12.35;6.63;;;;;;;14.68;85.16;100799.47;5096114;28;20027;-83
2022/05/05 06:52:24;;;;;;;19.45;7.20;;;;;;;14.58;86.07;100793.59;5099190;28;20478;-82
2022/05/05 06:54:54;;;;;;;14.05;6.20;;;;;;;14.56;86.26;100792.91;5100574;28;20028;-89
2022/05/05 06:57:20;;;;;;;19.08;7.35;;;;;;;14.80;84.96;100790.03;5095592;28;20039;-83
2022/05/05 06:59:47;;;;;;;14.57;6.70;;;;;;;14.91;83.52;100791.41;5095919;28;20398;-85
2022/05/05 07:02:12;;;;;;;15.18;7.03;;;;;;;14.81;83.86;100791.69;5091668;28;20028;-87
2022/05/05 07:07:23;;;;;;;9.48;6.60;;;;;;;15.21;82.17;100801.03;5073705;28;20386;-84
2022/05/05 07:12:33;;;;;;;16.25;7.60;;;;;;;15.18;81.03;100809.44;5055637;28;20131;-86
2022/05/05 07:14:59;;;;;;;11.40;6.50;;;;;;;15.46;78.54;100820.28;5062494;28;20154;-88
2022/05/05 07:17:25;;;;;;;11.25;6.60;;;;;;;15.57;75.99;100822.53;5056784;28;20085;-87
2022/05/05 07:19:52;;;;;;;13.75;6.72;;;;;;;15.54;77.10;100827.41;5057359;28;20185;-86
2022/05/05 07:22:18;;;;;;;11.82;7.05;;;;;;;15.51;76.11;100808.03;5075787;28;20383;-87
2022/05/05 07:24:46;;;;;;;25.75;7.85;;;;;;;15.25;78.77;100796.16;5077431;28;20040;-87
2022/05/05 07:27:12;;;;;;;10.23;7.07;;;;;;;15.50;76.86;100800.22;5085130;28;20039;-88
2022/05/05 07:29:38;;;;;;;12.85;7.93;;;;;;;15.40;77.75;100816.53;5083961;28;20059;-88
2022/05/05 07:32:04;;;;;;;13.82;7.53;;;;;;;15.39;78.06;100814.03;5081716;28;20463;-86
2022/05/05 07:34:30;;;;;;;20.75;8.30;;;;;;;15.51;78.50;100818.72;5078606;28;20055;-88
2022/05/05 07:36:56;;;;;;;16.20;8.50;;;;;;;15.51;77.69;100817.94;5074759;28;20483;-88
2022/05/05 07:39:22;;;;;;;15.65;8.15;;;;;;;15.43;78.95;100818.00;5075313;28;20033;-87
2022/05/05 07:41:49;;;;;;;11.70;7.85;;;;;;;15.61;79.31;100820.31;5080005;28;20040;-87
2022/05/05 07:44:15;;;;;;;17.70;9.40;;;;;;;15.59;79.70;100820.47;5088547;28;20398;-89
2022/05/05 07:46:41;;;;;;;11.95;9.15;;;;;;;15.58;81.44;100808.13;5055397;28;20035;-86
2022/05/05 07:49:07;;;;;;;16.35;8.35;;;;;;;15.49;83.06;100812.75;5074417;28;20028;-88
2022/05/05 07:51:33;;;;;;;10.50;8.98;;;;;;;15.41;83.71;100817.34;5078761;28;20040;-88
2022/05/05 07:56:44;;;;;;;10.88;8.40;;;;;;;15.60;81.95;100835.50;5075620;28;20503;-86
2022/05/05 07:59:11;;;;;;;14.15;8.00;;;;;;;15.46;82.08;100828.31;5091977;28;20517;-86
2022/05/05 08:01:37;;;;;;;18.20;8.40;;;;;;;15.44;82.36;100827.66;5088157;28;20043;-87
2022/05/05 08:04:04;;;;;;;15.90;8.98;;;;;;;15.45;83.76;100834.66;5059135;28;20020;-89
2022/05/05 08:06:30;;;;;;;12.60;7.97;;;;;;;15.25;84.69;100839.72;5055941;28;20399;-89
2022/05/05 08:08:56;;;;;;;13.00;9.10;;;;;;;15.23;86.23;100848.94;5075468;28;20089;-88
2022/05/05 08:11:22;;;;;;;13.88;8.27;;;;;;;15.22;86.16;100847.28;5077492;28;20049;-88
2022/05/05 08:13:49;;;;;;;13.73;8.05;;;;;;;15.36;84.17;100849.13;5089611;28;20042;-91
2022/05/05 08:16:16;;;;;;;14.73;7.47;;;;;;;15.52;81.17;100856.97;5080760;28;20033;-89
2022/05/05 08:18:42;;;;;;;20.00;8.05;;;;;;;15.53;80.18;100847.94;5059213;28;20040;-87
2022/05/05 08:21:10;;;;;;;11.90;7.80;;;;;;;15.51;80.03;100855.34;5060428;28;20048;-90
2022/05/05 08:23:38;;;;;;;14.20;8.30;;;;;;;15.36;82.23;100859.81;5085331;28;20035;-89
2022/05/05 08:28:47;;;;;;;16.00;7.32;;;;;;;15.16;82.10;100850.69;5111181;28;20089;-89
2022/05/05 08:31:14;;;;;;;11.65;7.03;;;;;;;15.34;77.70;100848.50;5086717;28;20102;-88
2022/05/05 08:33:39;;;;;;;14.00;7.40;;;;;;;15.44;78.17;100849.03;5084871;28;20029;-89
2022/05/05 08:36:06;;;;;;;11.50;7.13;;;;;;;15.33;78.37;100847.66;5098187;28;20057;-88
2022/05/05 08:38:33;;;;;;;15.65;8.13;;;;;;;15.38;80.21;100853.25;5083381;28;20048;-89
2022/05/05 08:40:59;;;;;;;13.90;6.90;;;;;;;15.25;79.21;100849.56;5084398;28;20033;-88
2022/05/05 08:43:25;;;;;;;13.27;7.97;;;;;;;15.14;81.76;100852.72;5105796;28;20032;-89
2022/05/05 08:45:53;;;;;;;17.98;7.68;;;;;;;15.31;79.82;100854.19;5077509;28;20129;-89
2022/05/05 08:48:19;;;;;;;13.07;7.70;;;;;;;15.02;83.69;100845.16;5076253;28;20398;-87
2022/05/05 08:50:50;;;;;;;11.90;8.10;;;;;;;14.95;86.54;100838.88;5074411;28;20551;-88
2022/05/05 08:53:16;;;;;;;16.92;9.27;;;;;;;14.82;90.05;100835.19;5076042;28;20119;-87
2022/05/05 08:55:49;;;;;;;15.00;8.30;;;;;;;14.83;90.23;100842.19;5078778;28;20052;-87
2022/05/05 08:58:16;;;;;;;13.15;7.97;;;;;;;15.08;86.06;100837.44;5057250;28;20040;-88
2022/05/05 09:00:41;;;;;;;13.05;8.02;;;;;;;15.12;85.32;100838.72;5044767;28;20094;-85
2022/05/05 09:03:09;;;;;;;12.85;7.65;;;;;;;15.16;85.62;100835.50;5081594;28;20020;-89
2022/05/05 09:05:55;;;;;;;17.70;7.85;;;;;;;15.08;86.79;100832.09;5082574;28;20605;-90
2022/05/05 09:08:24;;;;;;;11.52;7.63;;;;;;;15.16;86.64;100842.66;5080107;28;20047;-85
2022/05/05 09:10:51;;;;;;;14.32;7.95;;;;;;;15.53;84.80;100837.25;5081304;28;20032;-90
2022/05/05 09:13:24;;;;;;;11.88;7.43;;;;;;;15.54;83.81;100833.59;5064312;28;20037;-91
2022/05/05 09:16:00;;;;;;;11.85;8.35;;;;;;;15.39;84.32;100836.22;5086925;28;20113;-88
2022/05/05 09:18:31;;;;;;;14.88;7.65;;;;;;;15.19;84.87;100834.28;5087315;28;20040;-89
2022/05/05 09:21:04;;;;;;;13.40;7.80;;;;;;;15.24;85.56;100826.56;5075039;28;20039;-90
2022/05/05 09:23:31;;;;;;;16.50;8.20;;;;;;;15.16;86.78;100826.66;5095638;28;20028;-88
2022/05/05 09:26:01;;;;;;;15.38;8.80;;;;;;;15.04;87.93;100830.81;5068210;28;20037;-88
2022/05/05 09:28:31;;;;;;;13.52;7.65;;;;;;;15.13;86.39;100829.69;5093686;28;20024;-89
2022/05/05 09:31:08;;;;;;;17.75;7.80;;;;;;;15.18;85.30;100836.13;5079305;28;20059;-88
2022/05/05 09:33:36;;;;;;;10.73;6.93;;;;;;;15.36;83.44;100841.09;5088211;28;20020;-89
2022/05/05 09:36:04;;;;;;;17.02;7.60;;;;;;;15.28;83.90;100841.22;5102726;28;20150;-89
2022/05/05 09:39:04;;;;;;;13.70;7.63;;;;;;;15.38;84.52;100841.75;5089368;28;20036;-89
2022/05/05 09:41:42;;;;;;;14.48;8.07;;;;;;;15.37;84.77;100851.63;5082846;28;20028;-89
2022/05/05 09:44:13;;;;;;;17.52;7.18;;;;;;;15.47;84.15;100854.00;5090161;28;20053;-90
2022/05/05 09:46:40;;;;;;;21.77;7.63;;;;;;;15.39;84.79;100846.91;5099470;28;20043;-87
2022/05/05 09:49:07;;;;;;;18.83;6.97;;;;;;;15.52;83.04;100856.97;5100909;28;20048;-91
2022/05/05 09:57:43;;;;;;;15.27;6.72;;;;;;;15.44;81.42;100854.38;5096281;28;20039;-85
2022/05/05 10:00:23;;;;;;;11.90;7.45;;;;;;;15.34;82.58;100853.84;5078532;28;20108;-85
2022/05/05 10:05:40;;;;;;;11.60;7.07;;;;;;;15.40;81.17;100853.09;5078904;28;20037;-85
2022/05/05 10:08:07;;;;;;;13.77;6.75;;;;;;;15.54;81.37;100852.28;5079541;28;20032;-88
2022/05/05 10:10:33;;;;;;;10.32;6.78;;;;;;;15.67;80.51;100860.47;5084155;28;20044;-87
2022/05/05 10:12:59;;;;;;;12.93;6.97;;;;;;;15.84;78.99;100861.88;5080318;28;20037;-87
2022/05/05 10:15:25;;;;;;;9.32;6.75;;;;;;;15.64;79.87;100855.50;5080084;28;20467;-85
2022/05/05 10:17:51;;;;;;;15.65;7.10;;;;;;;15.66;80.77;100856.13;5078580;28;20174;-84
2022/05/05 10:20:20;;;;;;;10.40;7.07;;;;;;;15.89;80.78;100864.84;5064579;28;20028;-85
2022/05/05 10:23:30;;;;;;;16.58;7.38;;;;;;;15.99;80.43;100860.00;5061119;28;20048;-84
2022/05/05 10:25:55;;;;;;;15.88;9.40;;;;;;;16.19;77.66;100857.53;5096160;28;20025;-81
2022/05/05 10:28:47;;;;;;;33.03;11.15;;;;;;;16.11;78.23;100851.50;5074730;28;20045;-88
2022/05/05 10:31:31;;;;;;;28.57;16.10;;;;;;;16.33;81.50;100855.84;5084613;28;20048;-87
2022/05/05 10:33:59;;;;;;;39.03;26.98;;;;;;;16.29;89.73;100851.88;5082656;28;20071;-91
2022/05/05 10:36:25;;;;;;;42.47;25.75;;;;;;;16.15;92.57;100852.75;5093814;28;20088;-88
2022/05/05 10:38:52;;;;;;;45.30;28.27;;;;;;;16.19;95.90;100848.69;5078700;28;20087;-90
2022/05/05 10:41:44;;;;;;;49.95;30.15;;;;;;;16.11;100.00;100848.84;5067912;28;20082;-87
2022/05/05 10:44:15;;;;;;;52.73;32.70;;;;;;;16.02;100.00;100846.25;5094067;28;20040;-89
2022/05/05 10:46:50;;;;;;;62.53;36.35;;;;;;;16.16;100.00;100841.88;5085011;28;20073;-84
2022/05/05 10:49:34;;;;;;;74.57;43.05;;;;;;;16.00;100.00;100834.94;5104793;28;20054;-87
2022/05/05 10:52:12;;;;;;;75.22;44.22;;;;;;;16.03;100.00;100847.94;5112055;28;20097;-84
2022/05/05 10:54:38;;;;;;;75.15;44.72;;;;;;;15.99;100.00;100838.63;5097523;28;20052;-87
2022/05/05 10:57:23;;;;;;;75.72;45.15;;;;;;;16.16;100.00;100833.03;5089090;28;20032;-88
2022/05/05 11:00:19;;;;;;;70.90;44.58;;;;;;;16.12;100.00;100826.41;5088557;28;20032;-86
2022/05/05 11:02:58;;;;;;;77.15;47.38;;;;;;;16.17;100.00;100834.69;5089854;28;20044;-88
2022/05/05 11:05:29;;;;;;;79.97;45.93;;;;;;;16.20;100.00;100831.63;5092522;28;20040;-85
2022/05/05 11:08:26;;;;;;;79.32;47.70;;;;;;;16.06;100.00;100832.50;5090293;28;20289;-84
2022/05/05 11:13:45;;;;;;;73.60;47.05;;;;;;;15.89;100.00;100837.28;5092395;28;21320;-93
2022/05/05 11:22:18;;;;;;;79.72;50.28;;;;;;;15.81;100.00;100826.72;5074508;28;20036;-86
2022/05/05 11:24:48;;;;;;;77.55;48.88;;;;;;;16.06;100.00;100827.16;5081231;28;20028;-87
2022/05/05 11:27:32;;;;;;;;;;;;;;;16.10;100.00;100829.28;5063396;28;20039;-88
2022/05/05 11:29:58;;;;;;;85.97;48.95;;;;;;;16.15;100.00;100826.03;5078026;28;19924;-87
2022/05/05 11:32:32;;;;;;;82.47;49.92;;;;;;;16.02;100.00;100827.56;5060901;28;20500;-82
2022/05/05 11:34:59;;;;;;;80.82;48.85;;;;;;;16.03;100.00;100826.53;5092406;28;20043;-90
2022/05/05 11:37:29;;;;;;;80.15;49.20;;;;;;;16.23;100.00;100831.25;5059461;28;20032;-91
2022/05/05 11:39:56;;;;;;;78.68;49.88;;;;;;;16.15;100.00;100832.19;5099807;28;20028;-90
2022/05/05 11:42:21;;;;;;;73.93;48.70;;;;;;;15.95;100.00;100823.16;5081492;28;20032;-88
2022/05/05 11:44:48;;;;;;;75.53;50.10;;;;;;;16.03;100.00;100818.53;5095516;28;20506;-89
2022/05/05 11:47:20;;;;;;;73.20;47.38;;;;;;;16.08;100.00;100825.13;5084890;28;20379;-88
2022/05/05 11:49:47;;;;;;;77.87;48.33;;;;;;;16.22;100.00;100824.25;5078238;28;20029;-92
2022/05/05 11:52:18;;;;;;;70.25;46.92;;;;;;;16.19;100.00;100821.94;5092109;28;20032;-89
2022/05/05 11:54:53;;;;;;;82.03;48.13;;;;;;;16.21;100.00;100825.25;5091596;28;20056;-91
2022/05/05 11:57:35;;;;;;;74.68;47.35;;;;;;;16.17;100.00;100816.81;5093895;28;20044;-90
2022/05/05 12:02:47;;;;;;;71.47;45.80;;;;;;;16.62;100.00;100820.09;5085900;28;20069;-88
2022/05/05 12:05:17;;;;;;;74.85;47.35;;;;;;;16.47;100.00;100809.47;5089538;28;20407;-88
2022/05/05 12:07:46;;;;;;;68.68;47.28;;;;;;;16.50;100.00;100809.06;5074866;28;20040;-86
2022/05/05 12:10:16;;;;;;;72.40;46.92;;;;;;;16.51;100.00;100808.03;5074701;28;20028;-87
2022/05/05 12:12:46;;;;;;;70.30;45.72;;;;;;;16.62;100.00;100807.56;5080236;28;20043;-86